Time;durP1;ratioP1;P1;durP2;ratioP2;P2;SDS_P1;SDS_P2;PMS_P1;PMS_P2;Temp;Humidity;BMP_temperature;BMP_pressure;BME280_temperature;BME280_humidity;BME280_pressure;Samples;Min_cycle;Max_cycle;Signal;HPM_P1;HPM_P2
2023/11/03 00:02:06;;;;;;;12.70;5.65;;;;;;;10.78;64.90;98501.38;4945818;28;20027;-93
2023/11/03 00:04:45;;;;;;;9.88;5.53;;;;;;;10.91;65.04;98514.09;4947017;28;20495;-95
2023/11/03 00:07:14;;;;;;;11.15;5.53;;;;;;;10.96;65.09;98516.72;4962827;28;20031;-94
2023/11/03 00:09:40;;;;;;;10.57;5.55;;;;;;;10.80;65.28;98513.44;4945601;28;20050;-94
2023/11/03 00:12:06;;;;;;;10.52;5.13;;;;;;;10.95;65.29;98528.59;4930614;28;20133;-93
2023/11/03 00:14:39;;;;;;;10.15;5.80;;;;;;;10.90;64.67;98499.03;4946372;28;20054;-93
2023/11/03 00:17:15;;;;;;;;;;;;;;;;;;;;;
2023/11/03 00:19:51;;;;;;;;;;;;;;;;;;;;;
2023/11/03 00:22:30;;;;;;;;;;;;;;;;;;;;;
2023/11/03 00:25:11;;;;;;;11.05;4.70;;;;;;;10.68;65.16;98451.16;4963815;28;20388;-94
2023/11/03 00:27:42;;;;;;;11.63;5.80;;;;;;;10.60;65.68;98435.66;4947903;28;20031;-94
2023/11/03 00:30:12;;;;;;;7.88;5.35;;;;;;;10.78;65.58;98471.75;4977265;28;20023;-94
2023/11/03 00:32:38;;;;;;;8.80;5.38;;;;;;;10.47;65.74;98411.06;4946469;28;20117;-94
2023/11/03 00:35:14;;;;;;;9.80;5.40;;;;;;;10.50;66.16;98420.47;4945213;28;20081;-91
2023/11/03 00:37:40;;;;;;;8.82;5.30;;;;;;;10.48;66.18;98425.34;4945395;28;20039;-94
2023/11/03 00:40:10;;;;;;;9.18;5.07;;;;;;;10.60;65.86;98433.75;4960161;28;20025;-93
2023/11/03 00:42:42;;;;;;;13.52;5.45;;;;;;;10.58;66.51;98435.94;4945785;28;20057;-93
2023/11/03 00:45:09;;;;;;;12.70;5.18;;;;;;;10.66;66.11;98442.56;4945658;28;20027;-92
2023/11/03 00:47:37;;;;;;;10.80;5.15;;;;;;;10.63;65.74;98427.00;4945254;28;20023;-93
2023/11/03 00:50:09;;;;;;;11.32;5.80;;;;;;;10.48;66.01;98409.19;4976790;28;20097;-93
2023/11/03 00:52:35;;;;;;;12.30;6.05;;;;;;;10.44;66.45;98433.19;4945282;28;20077;-94
2023/11/03 00:55:01;;;;;;;10.48;5.97;;;;;;;10.37;66.28;98440.03;4945242;28;20029;-93
2023/11/03 00:57:29;;;;;;;9.25;5.75;;;;;;;10.33;65.99;98434.41;4944453;28;20413;-93
2023/11/03 00:59:56;;;;;;;8.88;5.47;;;;;;;10.36;66.11;98430.34;4960396;28;20039;-92
2023/11/03 01:02:23;;;;;;;12.65;6.18;;;;;;;10.44;66.37;98427.03;4944712;28;20121;-93
2023/11/03 01:04:49;;;;;;;11.10;6.22;;;;;;;10.26;66.47;98394.38;4944593;28;20034;-94
2023/11/03 01:07:14;;;;;;;11.15;5.70;;;;;;;10.41;66.44;98414.13;4944333;28;20027;-93
2023/11/03 01:09:41;;;;;;;11.27;5.80;;;;;;;10.43;66.19;98423.50;4944165;28;20014;-92
2023/11/03 01:12:07;;;;;;;11.82;6.15;;;;;;;10.55;65.72;98451.91;4944724;28;20030;-92
2023/11/03 01:14:33;;;;;;;13.40;5.35;;;;;;;10.55;66.05;98441.13;4944392;28;20035;-92
2023/11/03 01:17:04;;;;;;;9.45;5.78;;;;;;;10.48;66.10;98449.56;4944100;28;20045;-92
2023/11/03 01:19:38;;;;;;;11.27;6.18;;;;;;;10.56;66.21;98451.59;4945114;28;20030;-94
2023/11/03 01:22:12;;;;;;;9.88;5.57;;;;;;;10.72;65.93;98473.72;4945741;28;20023;-94
2023/11/03 01:24:40;;;;;;;10.20;5.53;;;;;;;10.74;65.74;98468.84;4961606;28;20485;-93
2023/11/03 01:27:11;;;;;;;10.82;5.53;;;;;;;10.77;66.03;98483.59;4960845;28;20027;-94
2023/11/03 01:29:49;;;;;;;;;;;;;;;;;;;;;
2023/11/03 01:32:20;;;;;;;7.30;5.35;;;;;;;10.77;65.98;98480.91;4958640;28;20041;-93
2023/11/03 01:34:49;;;;;;;11.82;5.95;;;;;;;10.66;66.50;98467.59;4945725;28;20109;-94
2023/11/03 01:37:14;;;;;;;10.90;6.32;;;;;;;10.77;66.31;98484.44;4945434;28;20051;-93
2023/11/03 01:39:47;;;;;;;11.43;6.10;;;;;;;10.71;67.40;98483.69;4928042;28;20412;-93
2023/11/03 01:42:19;;;;;;;19.77;7.15;;;;;;;10.63;66.57;98453.94;4944329;28;20023;-93
2023/11/03 01:44:52;;;;;;;13.57;5.88;;;;;;;10.69;66.90;98477.78;4944610;28;20027;-94
2023/11/03 01:47:45;;;;;;;12.18;6.20;;;;;;;10.54;66.91;98450.28;4944871;28;20027;-94
2023/11/03 01:50:11;;;;;;;11.80;6.18;;;;;;;10.54;66.86;98447.59;4944630;28;20027;-93
2023/11/03 01:52:41;;;;;;;11.27;5.88;;;;;;;10.64;66.73;98458.22;4942442;28;20555;-93
2023/11/03 01:55:07;;;;;;;9.18;5.93;;;;;;;10.66;66.56;98454.13;4944055;28;20065;-93
2023/11/03 01:57:33;;;;;;;8.07;5.45;;;;;;;10.73;66.71;98459.19;4944819;28;20030;-93
2023/11/03 02:00:01;;;;;;;9.20;5.85;;;;;;;10.68;66.98;98445.78;4944774;28;20497;-93
2023/11/03 02:02:31;;;;;;;11.38;5.97;;;;;;;10.86;66.65;98465.72;4930850;28;20117;-93
2023/11/03 02:05:06;;;;;;;10.20;5.45;;;;;;;10.86;66.66;98446.84;4929586;28;20114;-93
2023/11/03 02:07:34;;;;;;;8.45;6.03;;;;;;;10.92;66.92;98429.53;4946707;28;20022;-93
2023/11/03 02:10:06;;;;;;;11.82;5.97;;;;;;;10.98;67.49;98435.59;4943651;28;20598;-92
2023/11/03 02:12:34;;;;;;;14.68;5.95;;;;;;;10.97;67.24;98439.41;4960770;28;20117;-93
2023/11/03 02:15:08;;;;;;;9.43;6.10;;;;;;;10.77;67.66;98432.44;4942408;28;20042;-94
2023/11/03 02:17:36;;;;;;;13.52;6.30;;;;;;;10.89;66.91;98438.19;4944560;28;20029;-94
2023/11/03 02:20:08;;;;;;;8.95;5.55;;;;;;;10.85;66.73;98424.53;4943581;28;20061;-95
2023/11/03 02:22:46;;;;;;;;;;;;;;;;;;;;;
2023/11/03 02:25:16;;;;;;;9.05;5.90;;;;;;;11.09;65.81;98429.78;4961225;28;20262;-94
2023/11/03 02:27:45;;;;;;;13.70;6.60;;;;;;;11.04;66.31;98410.19;4942816;28;20023;-93
2023/11/03 02:30:23;;;;;;;;;;;;;;;;;;;;;
2023/11/03 02:32:51;;;;;;;8.75;5.47;;;;;;;11.07;66.45;98415.81;4960582;28;20053;-93
2023/11/03 02:35:19;;;;;;;11.32;6.15;;;;;;;11.07;66.23;98407.72;4943070;28;20084;-95
2023/11/03 02:37:52;;;;;;;11.40;5.55;;;;;;;11.07;65.99;98401.53;4957533;28;20493;-93
2023/11/03 02:40:45;;;;;;;;;;;;;;;;;;;;;
2023/11/03 02:43:10;;;;;;;10.20;6.00;;;;;;;11.14;66.27;98412.72;4961878;28;20029;-94
2023/11/03 02:45:45;;;;;;;8.98;5.88;;;;;;;11.01;66.64;98414.28;4926584;28;20511;-95
2023/11/03 02:48:11;;;;;;;11.68;5.65;;;;;;;10.96;66.48;98413.56;4959267;28;20019;-93
2023/11/03 02:50:36;;;;;;;10.35;5.90;;;;;;;10.99;66.50;98429.16;4942628;28;20401;-94
2023/11/03 02:53:10;;;;;;;12.60;6.18;;;;;;;10.82;66.58;98392.00;4942696;28;20027;-93
2023/11/03 02:55:40;;;;;;;11.45;6.00;;;;;;;10.86;66.23;98383.03;4959682;28;20026;-93
2023/11/03 02:58:16;;;;;;;12.35;6.53;;;;;;;10.97;66.95;98382.84;4943373;28;20433;-94
2023/11/03 03:00:41;;;;;;;10.93;6.60;;;;;;;10.91;66.79;98363.28;4944229;28;20031;-92
2023/11/03 03:03:10;;;;;;;10.30;6.32;;;;;;;11.01;67.28;98373.88;4957836;28;20095;-93
2023/11/03 03:05:39;;;;;;;9.00;6.13;;;;;;;11.09;68.66;98372.41;4943168;28;20050;-93
2023/11/03 03:08:04;;;;;;;13.82;7.00;;;;;;;11.16;68.04;98364.72;4958339;28;20026;-93
2023/11/03 03:10:33;;;;;;;10.80;6.22;;;;;;;11.37;69.61;98384.03;4943282;28;20035;-94
2023/11/03 03:13:07;;;;;;;15.85;6.35;;;;;;;11.38;68.37;98374.06;4943502;28;20481;-95
2023/11/03 03:15:41;;;;;;;11.30;6.32;;;;;;;11.44;68.01;98354.00;4945300;28;20393;-95
2023/11/03 03:18:36;;;;;;;;;;;;;;;;;;;;;
2023/11/03 03:21:13;;;;;;;11.00;7.55;;;;;;;11.66;71.44;98369.44;4975199;28;20037;-95
2023/11/03 03:23:44;;;;;;;11.50;7.35;;;;;;;11.89;73.31;98395.47;4944591;28;20328;-94
2023/11/03 03:26:24;;;;;;;;;;;;;;;;;;;;;
2023/11/03 03:29:15;;;;;;;12.35;7.85;;;;;;;12.25;73.92;98402.78;4960908;28;20027;-94
2023/11/03 03:31:44;;;;;;;13.27;8.55;;;;;;;12.32;73.68;98378.88;4948123;28;20046;-94
2023/11/03 03:34:24;;;;;;;;;;;;;;;;;;;;;
2023/11/03 03:36:53;;;;;;;15.95;8.73;;;;;;;12.55;72.83;98362.69;4959585;28;20043;-93
2023/11/03 03:39:28;;;;;;;;;;;;;;;;;;;;;
2023/11/03 03:42:19;;;;;;;14.13;8.43;;;;;;;12.84;72.42;98369.59;4960199;28;20025;-94
2023/11/03 03:44:50;;;;;;;15.32;8.93;;;;;;;12.89;72.26;98350.56;4961137;28;20035;-94
2023/11/03 03:47:17;;;;;;;15.68;8.80;;;;;;;13.02;71.95;98340.78;4943423;28;20022;-94
2023/11/03 03:49:42;;;;;;;14.27;9.20;;;;;;;13.05;71.83;98335.56;4942084;28;20027;-95
2023/11/03 03:52:17;;;;;;;18.30;8.55;;;;;;;13.25;71.28;98355.03;4957627;28;20034;-94
2023/11/03 03:54:42;;;;;;;15.55;9.05;;;;;;;13.22;71.15;98332.13;4944934;28;20018;-95
2023/11/03 03:57:11;;;;;;;15.45;8.07;;;;;;;13.23;71.27;98335.63;4942249;28;20420;-93
2023/11/03 03:59:40;;;;;;;18.52;8.20;;;;;;;13.33;71.29;98341.59;4943825;28;20026;-94
2023/11/03 04:02:25;;;;;;;;;;;;;;;;;;;;;
2023/11/03 04:04:50;;;;;;;19.35;9.13;;;;;;;13.46;71.20;98318.25;4961765;28;20034;-94
2023/11/03 04:07:16;;;;;;;16.05;8.35;;;;;;;13.56;70.89;98308.25;4942207;28;20039;-94
2023/11/03 04:09:49;;;;;;;15.75;8.50;;;;;;;13.78;71.37;98342.50;4942399;28;20026;-94
2023/11/03 04:12:15;;;;;;;14.00;8.30;;;;;;;13.77;70.79;98332.81;4958758;28;20061;-94
2023/11/03 04:14:40;;;;;;;17.88;9.30;;;;;;;13.63;70.76;98308.59;4926812;28;20026;-94
2023/11/03 04:17:09;;;;;;;14.98;8.65;;;;;;;13.79;70.76;98319.78;4945700;28;20086;-94
2023/11/03 04:19:37;;;;;;;15.10;9.25;;;;;;;13.96;70.71;98354.97;4947356;28;20106;-94
2023/11/03 04:22:26;;;;;;;;;;;;;;;;;;;;;
2023/11/03 04:27:45;;;;;;;15.10;8.40;;;;;;;13.83;70.46;98304.50;4972341;28;20026;-96
2023/11/03 04:33:51;;;;;;;;;;;;;;;;;;;;;
2023/11/03 04:36:53;;;;;;;;;;;;;;;;;;;;;
2023/11/03 04:39:19;;;;;;;14.73;7.30;;;;;;;14.11;69.61;98299.56;4977481;28;20070;-96
2023/11/03 04:42:04;;;;;;;16.38;8.50;;;;;;;14.18;69.63;98307.25;4941374;28;20026;-96
2023/11/03 04:45:06;;;;;;;;;;;;;;;;;;;;;
2023/11/03 04:47:52;;;;;;;17.00;7.70;;;;;;;14.33;69.19;98331.91;4976311;28;20070;-96
2023/11/03 04:50:46;;;;;;;11.23;7.20;;;;;;;14.14;69.17;98288.13;4992030;28;20018;-96
2023/11/03 04:53:31;;;;;;;;;;;;;;;;;;;;;
2023/11/03 04:55:57;;;;;;;12.38;7.40;;;;;;;14.30;69.11;98316.31;4971433;28;20076;-93
2023/11/03 05:04:56;;;;;;;12.82;7.85;;;;;;;14.26;69.13;98291.00;4930776;28;20042;-95
2023/11/03 05:07:35;;;;;;;;;;;;;;;;;;;;;
2023/11/03 05:13:42;;;;;;;15.77;7.32;;;;;;;14.46;68.61;98300.34;4992458;28;20035;-96
2023/11/03 05:16:26;;;;;;;;;;;;;;;;;;;;;
2023/11/03 05:22:55;;;;;;;14.55;6.95;;;;;;;14.60;68.26;98291.31;4930747;29;20108;-96
2023/11/03 05:25:39;;;;;;;;;;;;;;;;;;;;;
2023/11/03 05:28:51;;;;;;;12.02;7.85;;;;;;;14.64;67.82;98289.53;4907626;29;20043;-94
2023/11/03 05:32:38;;;;;;;;;;;;;;;;;;;;;
2023/11/03 05:35:46;;;;;;;;;;;;;;;;;;;;;
2023/11/03 05:38:49;;;;;;;16.83;8.38;;;;;;;14.79;67.28;98291.72;4904582;29;20075;-95
2023/11/03 05:42:38;;;;;;;;;;;;;;;;;;;;;
2023/11/03 05:45:27;;;;;;;22.80;10.55;;;;;;;14.90;67.18;98306.53;4896949;29;20139;-92
2023/11/03 05:48:22;;;;;;;13.32;8.80;;;;;;;15.05;67.21;98321.47;4931590;28;20038;-95
2023/11/03 05:50:50;;;;;;;36.30;20.42;;;;;;;15.23;67.34;98337.69;4930480;29;20043;-95
2023/11/03 05:53:32;;;;;;;15.50;8.93;;;;;;;15.03;67.51;98293.13;4944948;28;20039;-95
2023/11/03 05:56:51;;;;;;;19.75;9.20;;;;;;;15.33;67.17;98326.47;5016376;23;20054;-95
2023/11/03 05:59:42;;;;;;;18.33;8.57;;;;;;;15.21;66.73;98301.97;4993610;28;20038;-95
2023/11/03 06:15:23;;;;;;;20.13;8.60;;;;;;;15.48;65.99;98282.53;6211569;22;1790969;-96
2023/11/03 06:18:03;;;;;;;17.00;8.25;;;;;;;15.80;65.32;98291.16;6232171;23;20016;-96
2023/11/03 06:20:43;;;;;;;17.42;8.85;;;;;;;15.74;65.18;98265.31;6209690;23;20000;-96
2023/11/03 06:23:48;;;;;;;;;;;;;;;;;;;;;
2023/11/03 06:26:23;;;;;;;12.88;7.40;;;;;;;16.00;64.34;98272.47;6253299;22;20050;-95
2023/11/03 06:35:03;;;;;;;17.27;8.18;;;;;;;16.31;63.81;98291.06;6207000;22;20021;-91
2023/11/03 06:37:35;;;;;;;15.93;9.38;;;;;;;16.39;63.35;98290.19;6151628;23;20015;-95
2023/11/03 06:40:12;;;;;;;;;;;;;;;;;;;;;
2023/11/03 06:43:00;;;;;;;17.05;11.02;;;;;;;16.42;63.13;98240.66;6195797;23;20464;-95
2023/11/03 06:45:52;;;;;;;17.35;10.52;;;;;;;16.57;62.57;98244.66;6123376;23;20000;-94
2023/11/03 06:51:41;;;;;;;13.45;7.05;;;;;;;16.70;62.27;98234.59;6183443;23;20399;-95
2023/11/03 06:54:43;;;;;;;;;;;;;;;;;;;;;
2023/11/03 06:57:20;;;;;;;15.70;7.18;;;;;;;16.68;61.81;98210.47;6042378;23;20754;-95
2023/11/03 07:02:23;;;;;;;13.20;7.05;;;;;;;16.88;60.96;98233.28;6238310;22;20021;-94
2023/11/03 07:05:07;;;;;;;13.57;7.85;;;;;;;16.82;60.53;98193.09;6156972;23;20455;-95
2023/11/03 07:07:36;;;;;;;15.35;7.85;;;;;;;17.06;59.83;98197.75;6156657;23;20062;-94
2023/11/03 07:10:20;;;;;;;15.00;7.50;;;;;;;17.16;59.64;98198.06;6156671;23;20000;-95
2023/11/03 07:13:04;;;;;;;12.93;8.98;;;;;;;17.42;59.41;98217.88;6154846;23;20001;-96
2023/11/03 07:18:44;;;;;;;;;;;;;;;;;;;;;
2023/11/03 07:26:02;;;;;;;;;;;;;;;;;;;;;
2023/11/03 07:28:45;;;;;;;10.40;6.60;;;;;;;17.71;57.64;98186.88;6102024;23;20034;-95
2023/11/03 07:31:28;;;;;;;;;;;;;;;;;;;;;
2023/11/03 07:34:55;;;;;;;;;;;;;;;;;;;;;
2023/11/03 07:44:46;;;;;;;;;;;;;;;;;;;;;
2023/11/03 07:50:32;;;;;;;9.25;6.03;;;;;;;18.12;54.84;98182.22;6099366;23;20002;-96
2023/11/03 07:53:49;;;;;;;9.27;6.22;;;;;;;18.13;55.47;98192.75;6106439;23;20004;-94
2023/11/03 07:56:53;;;;;;;;;;;;;;;;;;;;;
2023/11/03 08:00:00;;;;;;;;;;;;;;;;;;;;;
2023/11/03 08:02:38;;;;;;;8.15;5.68;;;;;;;18.18;54.80;98175.38;6077015;23;20436;-95
2023/11/03 08:05:17;;;;;;;13.38;5.70;;;;;;;18.17;54.41;98179.22;6120415;23;20432;-94
2023/11/03 08:07:53;;;;;;;10.18;5.70;;;;;;;18.23;54.07;98144.34;6125088;23;20008;-95
2023/11/03 08:10:27;;;;;;;10.52;6.88;;;;;;;18.33;53.93;98157.47;6124889;23;20051;-96
2023/11/03 08:13:25;;;;;;;8.35;5.70;;;;;;;18.49;53.30;98150.09;6122640;23;19997;-96
2023/11/03 08:16:05;;;;;;;;;;;;;;;;;;;;;
2023/11/03 08:18:31;;;;;;;8.98;4.88;;;;;;;18.62;53.11;98158.97;6165122;23;20068;-93
2023/11/03 08:21:51;;;;;;;;;;;;;;;;;;;;;
2023/11/03 08:27:14;;;;;;;;;;;;;;;;;;;;;
2023/11/03 08:29:46;;;;;;;13.57;6.70;;;;;;;18.89;52.71;98104.72;6133434;23;20100;-96
2023/11/03 08:32:22;;;;;;;10.57;5.82;;;;;;;18.86;51.72;98108.13;6134136;23;20092;-95
2023/11/03 08:42:24;;;;;;;;;;;;;;;;;;;;;
2023/11/03 08:45:10;;;;;;;12.43;6.03;;;;;;;19.24;50.98;98117.59;6045918;23;20010;-96
2023/11/03 08:47:36;;;;;;;20.85;7.25;;;;;;;19.27;50.75;98095.81;6139231;23;20097;-90
2023/11/03 08:50:03;;;;;;;11.93;4.75;;;;;;;19.36;50.77;98095.59;6175164;23;20035;-91
2023/11/03 08:53:25;;;;;;;;;;;;;;;;;;;;;
2023/11/03 08:59:44;;;;;;;9.50;4.97;;;;;;;19.66;49.54;98076.69;6102581;23;20030;-96
2023/11/03 09:02:14;;;;;;;6.45;4.47;;;;;;;19.80;49.57;98076.22;6145307;23;20091;-96
2023/11/03 09:11:30;;;;;;;7.05;4.10;;;;;;;19.97;47.94;98080.44;6213083;22;20047;-95
2023/11/03 09:49:14;;;;;;;;;;;;;;;;;;;;;
2023/11/03 09:52:23;;;;;;;;;;;;;;;;;;;;;
2023/11/03 09:58:42;;;;;;;7.97;5.72;;;;;;;20.29;47.99;98031.00;6237595;23;20035;-95
2023/11/03 10:09:22;;;;;;;;;;;;;;;;;;;;;
2023/11/03 10:22:39;;;;;;;;;;;;;;;;;;;;;
2023/11/03 10:29:21;;;;;;;;;;;;;;;;;;;;;
2023/11/03 10:32:35;;;;;;;6.45;3.97;;;;;;;20.61;46.79;97979.56;5961395;23;20032;-94
2023/11/03 10:36:04;;;;;;;;;;;;;;;;;;;;;
2023/11/03 10:52:16;;;;;;;7.55;3.60;;;;;;;20.52;46.11;97965.34;6264368;22;20058;-96
2023/11/03 11:02:08;;;;;;;;;;;;;;;;;;;;;
2023/11/03 11:41:40;;;;;;;6.15;3.70;;;;;;;20.92;46.80;97887.34;6207045;22;20824;-95
2023/11/03 11:44:40;;;;;;;;;;;;;;;;;;;;;
2023/11/03 11:51:07;;;;;;;5.05;2.95;;;;;;;21.09;46.39;97870.31;6210894;22;20025;-95
2023/11/03 11:54:10;;;;;;;7.10;3.60;;;;;;;21.04;46.41;97865.16;6090298;23;20002;-96
2023/11/03 11:56:38;;;;;;;5.53;3.80;;;;;;;21.13;46.77;97870.38;6000996;23;20063;-96
2023/11/03 12:00:04;;;;;;;;;;;;;;;;;;;;;
2023/11/03 12:02:55;;;;;;;10.23;5.40;;;;;;;20.80;47.15;97861.00;5977679;24;20007;-95
2023/11/03 12:06:17;;;;;;;11.20;3.28;;;;;;;20.79;47.05;97841.09;5997224;23;20016;-96
2023/11/03 12:08:53;;;;;;;5.43;3.25;;;;;;;20.87;47.49;97847.41;5893420;24;20015;-95
2023/11/03 12:14:42;;;;;;;6.35;3.80;;;;;;;20.65;48.00;97845.59;6197051;22;20086;-96
2023/11/03 12:17:07;;;;;;;;;;;;;;;20.71;48.55;97864.03;6042034;23;20071;-96
2023/11/03 12:19:48;;;;;;;5.75;4.15;;;;;;;20.59;48.68;97848.66;6175751;23;19907;-96
2023/11/03 12:31:27;;;;;;;5.28;3.63;;;;;;;20.67;48.60;97833.13;6235662;22;20047;-95
2023/11/03 12:34:15;;;;;;;11.90;4.50;;;;;;;20.83;48.80;97849.31;6181325;23;20009;-96
2023/11/03 12:37:00;;;;;;;;;;;;;;;;;;;;;
2023/11/03 12:40:20;;;;;;;9.43;4.07;;;;;;;20.78;49.06;97820.34;6204528;23;20028;-95
2023/11/03 12:46:35;;;;;;;5.10;3.05;;;;;;;20.85;49.08;97821.59;6083764;23;20023;-96
2023/11/03 13:03:57;;;;;;;9.07;4.75;;;;;;;20.71;50.03;97787.47;6225907;22;20226;-96
2023/11/03 13:07:14;;;;;;;6.95;4.28;;;;;;;20.69;50.65;97810.84;6152450;23;20041;-96
2023/11/03 13:15:42;;;;;;;9.68;4.72;;;;;;;20.35;51.53;97799.91;6208709;23;19930;-94
2023/11/03 13:18:15;;;;;;;8.73;4.20;;;;;;;20.42;52.08;97810.13;6180078;23;20016;-96
2023/11/03 13:20:50;;;;;;;8.48;4.93;;;;;;;20.35;52.15;97797.16;6185871;23;19996;-93
2023/11/03 13:23:30;;;;;;;;;;;;;;;;;;;;;
2023/11/03 13:26:13;;;;;;;6.97;4.15;;;;;;;20.29;52.34;97799.44;6256069;23;20037;-94
2023/11/03 13:28:39;;;;;;;9.93;6.20;;;;;;;20.25;52.07;97795.88;6161935;23;20000;-94
2023/11/03 13:31:32;;;;;;;7.65;4.20;;;;;;;20.14;52.13;97773.88;6179055;23;19992;-96
2023/11/03 13:40:21;;;;;;;;;;;;;;;;;;;;;
2023/11/03 13:43:16;;;;;;;7.18;3.97;;;;;;;20.09;52.49;97800.75;6193173;23;20045;-95
2023/11/03 13:46:09;;;;;;;;;;;;;;;;;;;;;
2023/11/03 13:48:48;;;;;;;;;;;;;;;;;;;;;
2023/11/03 13:51:17;;;;;;;7.82;3.92;;;;;;;20.18;52.36;97817.66;6171957;23;20028;-94
2023/11/03 14:00:35;;;;;;;7.95;4.07;;;;;;;20.30;51.91;97855.69;6049346;23;20030;-95
2023/11/03 14:03:09;;;;;;;9.95;4.28;;;;;;;20.14;52.69;97857.81;6165857;23;20092;-95
2023/11/03 14:05:58;;;;;;;5.25;3.63;;;;;;;20.14;52.05;97844.94;6166763;23;20012;-96
2023/11/03 14:08:36;;;;;;;;;;;;;;;;;;;;;
2023/11/03 14:11:26;;;;;;;;;;;;;;;;;;;;;
2023/11/03 14:14:04;;;;;;;7.07;4.30;;;;;;;20.11;52.38;97850.38;6165353;23;20032;-94
2023/11/03 14:16:33;;;;;;;6.75;3.53;;;;;;;20.03;52.25;97835.81;6161988;23;20040;-95
2023/11/03 14:19:19;;;;;;;7.05;4.25;;;;;;;19.96;52.39;97833.75;6166334;23;20387;-95
2023/11/03 14:22:10;;;;;;;7.65;3.50;;;;;;;20.16;52.54;97864.47;6194562;23;20408;-95
2023/11/03 14:26:10;;;;;;;;;;;;;;;;;;;;;
2023/11/03 14:28:14;;;;;;;8.48;4.20;;;;;;;20.15;52.07;97854.72;6181959;23;20020;-95
2023/11/03 14:41:09;;;;;;;10.88;3.70;;;;;;;20.01;52.65;97886.50;6077205;23;20034;-95
2023/11/03 14:44:21;;;;;;;10.80;3.75;;;;;;;19.98;53.10;97907.13;6089964;23;20014;-96
2023/11/03 14:47:17;;;;;;;6.35;3.70;;;;;;;19.93;53.33;97897.31;6155048;23;20080;-94
2023/11/03 14:53:41;;;;;;;;;;;;;;;;;;;;;
2023/11/03 14:56:16;;;;;;;6.13;3.33;;;;;;;19.63;54.14;97858.19;6167499;23;20062;-93
2023/11/03 14:59:00;;;;;;;;;;;;;;;;;;;;;
2023/11/03 15:01:30;;;;;;;6.65;3.10;;;;;;;19.58;54.48;97851.88;6170765;23;20028;-93
2023/11/03 15:04:06;;;;;;;8.23;3.53;;;;;;;19.52;54.52;97850.59;6165179;23;20010;-95
2023/11/03 15:06:54;;;;;;;5.72;3.08;;;;;;;19.51;54.41;97840.06;6165255;23;20000;-95
2023/11/03 15:09:34;;;;;;;8.98;3.80;;;;;;;19.46;54.34;97841.13;6136378;23;20001;-96
2023/11/03 15:12:05;;;;;;;10.98;2.83;;;;;;;19.64;54.40;97882.41;6164490;23;20016;-94
2023/11/03 15:15:12;;;;;;;8.80;3.38;;;;;;;19.41;54.43;97835.22;6167690;23;20060;-95
2023/11/03 15:17:56;;;;;;;5.15;2.65;;;;;;;19.55;54.30;97868.22;6142749;23;20055;-95
2023/11/03 15:20:58;;;;;;;;;;;;;;;;;;;;;
2023/11/03 15:23:27;;;;;;;8.32;4.15;;;;;;;19.48;54.83;97868.88;6190726;23;20028;-94
2023/11/03 15:26:21;;;;;;;;;;;;;;;;;;;;;
2023/11/03 15:28:51;;;;;;;9.00;3.40;;;;;;;19.58;54.79;97892.03;6166432;23;20016;-96
2023/11/03 15:31:20;;;;;;;7.57;3.42;;;;;;;19.42;54.19;97880.44;6165720;23;20004;-94
2023/11/03 15:33:56;;;;;;;9.43;2.72;;;;;;;19.43;54.77;97890.25;6166772;23;19997;-96
2023/11/03 15:36:29;;;;;;;10.35;3.20;;;;;;;19.35;54.63;97883.84;6164625;23;20000;-94
2023/11/03 15:39:28;;;;;;;;;;;;;;;;;;;;;
2023/11/03 15:42:41;;;;;;;6.07;2.67;;;;;;;19.42;54.30;97877.72;6153368;23;20032;-95
2023/11/03 15:45:40;;;;;;;;;;;;;;;;;;;;;
2023/11/03 15:48:06;;;;;;;6.70;3.00;;;;;;;19.36;54.62;97878.03;6142106;23;20025;-93
2023/11/03 15:50:37;;;;;;;7.18;3.17;;;;;;;19.47;54.24;97896.53;6131440;23;20001;-93
2023/11/03 15:53:15;;;;;;;;;;;;;;;;;;;;;
2023/11/03 15:56:09;;;;;;;;;;;;;;;;;;;;;
2023/11/03 15:59:35;;;;;;;5.85;2.20;;;;;;;19.61;54.07;97913.19;6143719;23;20025;-94
2023/11/03 16:02:17;;;;;;;;;;;;;;;;;;;;;
2023/11/03 16:07:38;;;;;;;3.83;2.28;;;;;;;19.48;54.31;97881.72;6190986;22;20040;-94
2023/11/03 16:10:16;;;;;;;5.68;2.58;;;;;;;19.45;54.12;97869.59;6127175;23;20000;-95
2023/11/03 16:22:36;;;;;;;5.00;2.92;;;;;;;19.45;53.72;97847.75;6072976;23;20467;-94
2023/11/03 16:25:02;;;;;;;3.67;2.25;;;;;;;19.40;54.14;97845.31;6110052;23;20008;-93
2023/11/03 16:27:57;;;;;;;4.55;2.30;;;;;;;19.53;53.60;97874.03;6115897;23;20016;-93
2023/11/03 16:30:46;;;;;;;7.82;2.45;;;;;;;19.43;53.84;97858.25;6143986;23;20005;-95
2023/11/03 16:33:15;;;;;;;7.90;2.30;;;;;;;19.37;53.64;97843.34;6139977;23;19997;-95
2023/11/03 16:36:05;;;;;;;3.63;1.98;;;;;;;19.37;53.41;97830.47;6141639;23;20416;-95
2023/11/03 16:41:53;;;;;;;8.52;2.78;;;;;;;19.36;53.75;97831.63;6043260;23;20038;-94
2023/11/03 16:44:46;;;;;;;;;;;;;;;;;;;;;
2023/11/03 16:47:33;;;;;;;;;;;;;;;;;;;;;
2023/11/03 16:50:42;;;;;;;;;;;;;;;;;;;;;
2023/11/03 16:53:22;;;;;;;5.03;2.50;;;;;;;19.44;53.56;97868.00;6160490;23;20408;-92
2023/11/03 16:56:02;;;;;;;;;;;;;;;;;;;;;
2023/11/03 16:58:37;;;;;;;5.95;2.72;;;;;;;19.28;53.15;97827.22;6146636;23;20378;-92
2023/11/03 17:02:36;;;;;;;;;;;;;;;;;;;;;
2023/11/03 17:05:03;;;;;;;6.18;3.13;;;;;;;19.44;52.91;97832.53;6147379;23;20009;-94
2023/11/03 18:43:34;;;;;;;5.63;2.78;;;;;;;19.96;48.90;97839.22;6226537;22;20032;-96
2023/11/03 18:46:11;;;;;;;5.65;2.30;;;;;;;20.02;48.68;97856.06;6202391;23;20023;-96
2023/11/03 18:49:02;;;;;;;6.47;2.13;;;;;;;19.94;48.87;97830.63;6176688;23;20000;-96
2023/11/03 18:51:42;;;;;;;11.43;4.95;;;;;;;20.04;48.91;97844.78;6186939;23;20052;-96
2023/11/03 18:54:26;;;;;;;4.45;2.25;;;;;;;20.06;48.72;97850.66;6197933;23;20007;-96
2023/11/03 18:57:15;;;;;;;4.88;2.22;;;;;;;20.17;48.99;97849.66;6173546;23;20056;-96
2023/11/03 18:59:41;;;;;;;9.70;2.30;;;;;;;20.00;48.80;97828.31;6199265;23;19997;-96
2023/11/03 19:02:20;;;;;;;;;;;;;;;;;;;;;
2023/11/03 19:05:18;;;;;;;8.30;2.75;;;;;;;20.10;48.87;97830.44;6203839;23;20012;-96
2023/11/03 19:07:56;;;;;;;;;;;;;;;;;;;;;
2023/11/03 19:10:42;;;;;;;7.40;3.42;;;;;;;20.05;48.51;97833.50;6200773;23;20024;-96
2023/11/03 19:14:04;;;;;;;6.30;2.40;;;;;;;20.24;48.58;97865.38;6211247;23;19985;-96
2023/11/03 19:25:42;;;;;;;8.40;2.75;;;;;;;20.01;48.88;97857.25;6251384;22;20032;-95
2023/11/03 19:28:30;;;;;;;5.60;2.42;;;;;;;20.13;49.46;97875.34;6226880;23;20012;-96
2023/11/03 19:31:04;;;;;;;9.85;2.42;;;;;;;20.03;48.91;97857.66;6217234;23;20004;-96
2023/11/03 19:33:58;;;;;;;6.80;2.88;;;;;;;20.01;49.40;97859.19;6186823;23;20000;-96
2023/11/03 19:36:48;;;;;;;5.65;2.20;;;;;;;20.03;49.07;97859.63;6256348;23;20012;-96
2023/11/03 19:39:46;;;;;;;5.93;2.30;;;;;;;20.10;49.03;97882.34;6178780;23;20012;-96
2023/11/03 19:42:27;;;;;;;;;;;;;;;;;;;;;
2023/11/03 19:45:16;;;;;;;5.47;2.40;;;;;;;19.95;49.47;97867.69;6152628;23;20067;-95
2023/11/03 19:47:43;;;;;;;6.85;2.45;;;;;;;19.96;49.38;97863.00;6164169;23;20360;-92
2023/11/03 19:50:12;;;;;;;5.57;2.42;;;;;;;19.96;49.34;97874.75;6135858;23;20001;-92
2023/11/03 19:52:40;;;;;;;9.18;2.58;;;;;;;20.11;48.83;97894.88;6136576;23;20008;-92
2023/11/03 19:55:06;;;;;;;7.55;2.38;;;;;;;20.12;48.93;97912.81;6160092;23;20004;-92
2023/11/03 19:57:32;;;;;;;7.15;2.30;;;;;;;20.07;49.31;97902.22;6136129;23;20005;-91
2023/11/03 19:59:57;;;;;;;6.05;2.33;;;;;;;20.09;49.18;97910.06;6136572;23;20005;-91
2023/11/03 20:02:24;;;;;;;6.13;2.92;;;;;;;19.85;49.23;97889.38;6135845;23;20013;-91
2023/11/03 20:04:51;;;;;;;6.45;2.50;;;;;;;19.90;49.32;97889.88;6217847;23;20036;-93
2023/11/03 20:07:16;;;;;;;5.78;2.83;;;;;;;19.91;49.51;97882.47;6171809;23;20004;-91
2023/11/03 20:09:42;;;;;;;6.05;2.33;;;;;;;19.98;49.34;97897.03;6170668;23;20011;-92
2023/11/03 20:12:09;;;;;;;5.82;2.45;;;;;;;20.16;49.05;97908.19;6194124;23;20082;-91
2023/11/03 20:14:34;;;;;;;7.22;2.47;;;;;;;20.09;48.77;97893.66;6171586;23;20078;-92
2023/11/03 20:17:00;;;;;;;13.57;2.70;;;;;;;20.09;49.11;97907.31;6195689;23;20328;-91
2023/11/03 20:19:26;;;;;;;6.05;3.35;;;;;;;20.12;48.83;97895.66;6221110;23;20565;-93
2023/11/03 20:21:53;;;;;;;5.85;2.13;;;;;;;20.17;48.98;97907.06;6197350;23;20431;-92
2023/11/03 20:24:21;;;;;;;11.77;3.28;;;;;;;20.21;48.82;97909.03;6195872;23;20020;-93
2023/11/03 20:26:47;;;;;;;5.65;2.40;;;;;;;20.14;48.49;97888.66;6197208;23;20069;-92
2023/11/03 20:29:13;;;;;;;7.85;2.97;;;;;;;20.23;48.38;97893.84;6222159;23;19996;-92
2023/11/03 20:31:43;;;;;;;11.07;2.90;;;;;;;20.18;48.40;97883.25;6247880;23;20030;-92
2023/11/03 20:34:10;;;;;;;8.27;2.58;;;;;;;20.26;48.21;97904.06;6172561;23;20019;-92
2023/11/03 20:36:35;;;;;;;7.43;2.50;;;;;;;20.33;48.16;97906.88;6196578;23;20031;-92
2023/11/03 20:39:07;;;;;;;9.20;2.53;;;;;;;20.28;48.28;97909.16;6171380;23;19997;-91